createdAt,value
2018-01-22T00:10:51.169Z,8.16
2018-01-22T00:11:32.170Z,8.1
2018-01-22T00:12:12.719Z,8.08
2018-01-22T00:12:53.281Z,8.19
2018-01-22T00:13:36.603Z,8.22
2018-01-22T00:14:17.138Z,8.08
2018-01-22T00:14:57.661Z,8.11
2018-01-22T00:15:38.212Z,8.15
2018-01-22T00:16:18.879Z,8.18
2018-01-22T00:16:59.624Z,8.22
2018-01-22T00:17:40.631Z,8.16
2018-01-22T00:18:21.235Z,8.07
2018-01-22T00:19:01.755Z,8.01
2018-01-22T00:19:42.394Z,8.02
2018-01-22T00:20:22.931Z,8.04
2018-01-22T00:21:03.538Z,8.08
2018-01-22T00:21:45.041Z,7.92
2018-01-22T00:22:25.730Z,7.89
2018-01-22T00:23:06.301Z,7.86
2018-01-22T00:23:46.906Z,7.89
2018-01-22T00:24:27.487Z,7.89
2018-01-22T00:25:08.017Z,7.98
2018-01-22T00:25:48.791Z,8.01
2018-01-22T00:26:30.347Z,7.9
2018-01-22T00:27:10.845Z,7.86
2018-01-22T00:27:51.454Z,7.87
2018-01-22T00:28:31.985Z,8.02
2018-01-22T00:29:12.512Z,7.9
2018-01-22T00:29:53.087Z,8.05
2018-01-22T00:30:33.634Z,8.05
2018-01-22T00:31:15.445Z,8.07
2018-01-22T00:31:56.031Z,8.02
2018-01-22T00:32:36.634Z,8
2018-01-22T00:33:17.190Z,8.04
2018-01-22T00:33:57.708Z,7.98
2018-01-22T00:34:38.260Z,8.04
2018-01-22T00:35:20.161Z,8.05
2018-01-22T00:36:00.589Z,8.02
2018-01-22T00:36:41.200Z,7.89
2018-01-22T00:37:21.719Z,8.1
2018-01-22T00:38:02.266Z,8
2018-01-22T00:38:42.804Z,8.01
2018-01-22T00:39:23.359Z,8.01
2018-01-22T00:40:05.597Z,8.01
2018-01-22T00:40:46.181Z,7.97
2018-01-22T00:41:26.821Z,8.05
2018-01-22T00:42:07.408Z,8.01
2018-01-22T00:42:47.946Z,8.1
2018-01-22T00:43:30.158Z,7.89
2018-01-22T00:44:10.341Z,7.86
2018-01-22T00:44:50.882Z,8
2018-01-22T00:45:31.440Z,8.01
2018-01-22T00:46:11.999Z,7.61
2018-01-22T00:46:52.532Z,7.48
2018-01-22T00:47:33.058Z,7.58
2018-01-22T00:48:15.140Z,7.75
2018-01-22T00:48:55.719Z,7.87
2018-01-22T00:49:36.271Z,7.79
2018-01-22T00:50:16.864Z,7.85
2018-01-22T00:50:57.377Z,7.71
2018-01-22T00:51:37.960Z,7.69
2018-01-22T00:52:20.136Z,7.79
2018-01-22T00:53:00.710Z,7.82
2018-01-22T00:53:41.272Z,7.74
2018-01-22T00:54:21.858Z,7.82
2018-01-22T00:55:02.369Z,7.83
2018-01-22T00:55:42.947Z,7.71
2018-01-22T00:56:23.479Z,7.71
2018-01-22T00:57:05.646Z,7.69
2018-01-22T00:57:46.169Z,7.86
2018-01-22T00:58:26.715Z,7.85
2018-01-22T00:59:07.294Z,7.83
2018-01-22T00:59:47.849Z,7.67
2018-01-22T01:00:28.391Z,7.64
2018-01-22T01:01:09.851Z,7.61
2018-01-22T01:01:50.434Z,7.71
2018-01-22T01:02:31.164Z,7.85
2018-01-22T01:03:11.699Z,7.82
2018-01-22T01:03:52.216Z,7.71
2018-01-22T01:04:32.746Z,7.69
2018-01-22T01:05:13.352Z,7.8
2018-01-22T01:05:54.324Z,7.69
2018-01-22T01:06:36.095Z,7.85
2018-01-22T01:07:16.651Z,7.86
2018-01-22T01:07:57.231Z,7.79
2018-01-22T01:08:37.778Z,7.79
2018-01-22T01:09:18.307Z,7.89
2018-01-22T01:09:59.081Z,7.83
2018-01-22T01:10:40.394Z,8
2018-01-22T01:11:20.941Z,8.02
2018-01-22T01:12:01.484Z,8.08
2018-01-22T01:12:42.021Z,8.05
2018-01-22T01:13:22.613Z,8.05
2018-01-22T01:14:03.154Z,8.02
2018-01-22T01:14:43.744Z,7.97
2018-01-22T01:15:25.376Z,8.02
2018-01-22T01:16:06.076Z,8.1
2018-01-22T01:16:46.631Z,8
2018-01-22T01:17:27.168Z,7.9
2018-01-22T01:18:07.739Z,7.85
2018-01-22T01:18:48.310Z,7.92
2018-01-22T01:19:28.889Z,7.92
2018-01-22T01:20:11.601Z,8
2018-01-22T01:20:52.191Z,8
2018-01-22T01:21:32.782Z,8.04
2018-01-22T01:22:13.393Z,8.02
2018-01-22T01:24:09.115Z,8
2018-01-22T01:24:50.637Z,7.89
2018-01-22T01:25:31.208Z,7.89
2018-01-22T01:26:11.810Z,8.02
2018-01-22T01:26:52.344Z,8.04
2018-01-22T01:27:32.885Z,7.9
2018-01-22T01:28:13.565Z,7.92
2018-01-22T01:28:54.101Z,7.97
2018-01-22T01:29:34.662Z,7.92
2018-01-22T01:30:15.186Z,7.95
2018-01-22T01:30:55.715Z,7.92
2018-01-22T01:31:36.263Z,7.95
2018-01-22T01:32:18.069Z,8.02
2018-01-22T01:32:58.754Z,8.05
2018-01-22T01:33:39.254Z,8.08
2018-01-22T01:34:19.900Z,8.1
2018-01-22T01:35:00.425Z,8.02
2018-01-22T01:35:40.988Z,8.1
2018-01-22T01:36:22.975Z,8.1
2018-01-22T01:37:03.453Z,7.93
2018-01-22T01:37:43.970Z,7.98
2018-01-22T01:38:24.540Z,7.87
2018-01-22T01:39:05.085Z,7.87
2018-01-22T01:39:45.665Z,7.92
2018-01-22T01:40:26.222Z,7.98
2018-01-22T01:41:07.380Z,7.9
2018-01-22T01:41:48.004Z,7.86
2018-01-22T01:42:28.820Z,7.85
2018-01-22T01:43:09.445Z,7.95
2018-01-22T01:43:49.964Z,8.04
2018-01-22T01:44:30.588Z,7.98
2018-01-22T01:45:11.201Z,8.07
2018-01-22T01:45:52.043Z,8.1
2018-01-22T01:46:33.433Z,8.04
2018-01-22T01:47:13.945Z,8.01
2018-01-22T01:47:54.548Z,8.05
2018-01-22T01:48:35.150Z,8.05
2018-01-22T01:49:15.702Z,8.11
2018-01-22T01:49:56.467Z,8.07
2018-01-22T01:50:37.902Z,8.08
2018-01-22T01:51:18.454Z,8.07
2018-01-22T01:51:59.023Z,7.98
2018-01-22T01:52:39.655Z,8.07
2018-01-22T01:53:20.259Z,8.07
2018-01-22T01:54:00.863Z,8.08
2018-01-22T01:54:42.738Z,8.11
2018-01-22T01:55:23.507Z,8.12
2018-01-22T01:56:04.088Z,8.1
2018-01-22T01:56:44.644Z,7.89
2018-01-22T01:57:25.169Z,7.97
2018-01-22T01:58:05.718Z,8.07
2018-01-22T01:58:47.615Z,8.05
2018-01-22T01:59:28.822Z,7.86
2018-01-22T02:00:12.722Z,7.86
2018-01-22T02:00:53.268Z,8.02
2018-01-22T02:01:34.254Z,8.02
2018-01-22T02:02:14.825Z,8.11
2018-01-22T02:02:55.354Z,8.04
2018-01-22T02:03:35.973Z,8.1
2018-01-22T02:04:19.655Z,8.05
2018-01-22T02:05:00.240Z,8
2018-01-22T02:05:40.771Z,7.93
2018-01-22T02:06:22.052Z,7.95
2018-01-22T02:07:03.101Z,7.89
2018-01-22T02:07:43.777Z,7.92
2018-01-22T02:08:24.334Z,7.95
2018-01-22T02:09:04.933Z,7.89
2018-01-22T02:09:45.515Z,8.01
2018-01-22T02:10:26.103Z,8.07
2018-01-22T02:11:10.532Z,8.04
2018-01-22T02:11:51.038Z,8.04
2018-01-22T02:12:32.833Z,8.04
2018-01-22T02:13:13.216Z,8.11
2018-01-22T02:13:53.754Z,8.15
2018-01-22T02:14:34.270Z,8.07
2018-01-22T02:15:14.829Z,8.18
2018-01-22T02:15:55.358Z,8.04
2018-01-22T02:16:35.964Z,8.05
2018-01-22T02:17:16.627Z,8.04
2018-01-22T02:17:58.085Z,8.11
2018-01-22T02:18:38.613Z,8.1
2018-01-22T02:19:19.165Z,8.01
2018-01-22T02:19:59.825Z,7.9
2018-01-22T02:20:40.429Z,8.01
2018-01-22T02:21:20.914Z,7.85
2018-01-22T02:22:02.623Z,7.87
2018-01-22T02:22:43.314Z,7.89
2018-01-22T02:23:23.874Z,7.86
2018-01-22T02:24:04.442Z,7.89
2018-01-22T02:24:45.062Z,7.64
2018-01-22T02:25:25.574Z,7.63
2018-01-22T02:26:06.153Z,7.75
2018-01-22T02:26:47.123Z,7.83
2018-01-22T02:27:28.349Z,7.93
2018-01-22T02:28:08.875Z,7.93
2018-01-22T02:28:49.442Z,7.98
2018-01-22T02:29:30.000Z,7.86
2018-01-22T02:30:10.605Z,7.85
2018-01-22T02:30:51.217Z,7.89
2018-01-22T02:31:32.590Z,7.86
2018-01-22T02:32:12.878Z,7.92
2018-01-22T02:32:53.422Z,7.74
2018-01-22T02:33:33.956Z,7.8
2018-01-22T02:34:14.513Z,7.77
2018-01-22T02:34:55.070Z,7.89
2018-01-22T02:35:35.632Z,7.93
2018-01-22T02:36:16.150Z,7.93
2018-01-22T02:36:59.554Z,7.98
2018-01-22T02:37:40.124Z,8.04
2018-01-22T02:38:20.703Z,8.11
2018-01-22T02:39:02.405Z,8.07
2018-01-22T02:39:42.409Z,8.05
2018-01-22T02:40:22.993Z,8.04
2018-01-22T02:41:03.529Z,8.08
2018-01-22T02:41:44.088Z,8.08
2018-01-22T02:42:24.633Z,8.15
2018-01-22T02:43:05.219Z,8.05
2018-01-22T02:43:45.778Z,8.07
2018-01-22T02:44:26.364Z,8.16
2018-01-22T02:45:07.965Z,8.1
2018-01-22T02:45:48.608Z,8.18
2018-01-22T02:46:29.164Z,8.04
2018-01-22T02:47:09.720Z,8.07
2018-01-22T02:47:50.292Z,8
2018-01-22T02:48:30.794Z,8.1
2018-01-22T02:49:11.994Z,8.02
2018-01-22T02:49:53.968Z,8.02
2018-01-22T02:50:34.546Z,8.05
2018-01-22T02:51:15.109Z,8.04
2018-01-22T02:51:55.642Z,8.08
2018-01-22T02:52:36.203Z,8.05
2018-01-22T02:53:16.718Z,8.07
2018-01-22T02:53:57.269Z,8.02
2018-01-22T02:54:37.795Z,8.05
2018-01-22T02:55:18.334Z,8
2018-01-22T02:55:58.921Z,8.05
2018-01-22T02:56:39.456Z,8.1
2018-01-22T02:57:20.081Z,7.87
2018-01-22T02:58:01.447Z,7.89
2018-01-22T02:58:42.001Z,8
2018-01-22T02:59:22.590Z,7.98
2018-01-22T03:00:03.155Z,8.04
2018-01-22T03:00:43.723Z,7.86
2018-01-22T03:01:24.281Z,7.89
2018-01-22T03:02:04.844Z,8
2018-01-22T03:02:45.437Z,8.05
2018-01-22T03:03:26.038Z,8.07
2018-01-22T03:04:06.585Z,7.85
2018-01-22T03:04:47.148Z,7.87
2018-01-22T03:05:27.699Z,7.89
2018-01-22T03:06:08.263Z,8.01
2018-01-22T03:06:48.847Z,8.08
2018-01-22T03:07:29.574Z,8.02
2018-01-22T03:08:10.158Z,8.01
2018-01-22T03:08:50.691Z,8.04
2018-01-22T03:09:31.308Z,8.05
2018-01-22T03:10:11.809Z,8.08
2018-01-22T03:10:52.358Z,8.05
2018-01-22T03:11:32.850Z,7.95
2018-01-22T03:12:14.037Z,8.01
2018-01-22T03:12:54.647Z,8
2018-01-22T03:13:35.153Z,7.83
2018-01-22T03:14:15.700Z,7.93
2018-01-22T03:14:56.260Z,8.08
2018-01-22T03:15:36.818Z,8.01
2018-01-22T03:16:17.374Z,8.16
2018-01-22T03:16:57.890Z,8.12
2018-01-22T03:17:38.451Z,8.05
2018-01-22T03:18:19.018Z,8.12
2018-01-22T03:18:59.625Z,8.16
2018-01-22T03:19:40.157Z,8.08
2018-01-22T03:20:20.692Z,8.1
2018-01-22T03:21:01.253Z,7.86
2018-01-22T03:21:41.781Z,7.87
2018-01-22T03:22:22.374Z,7.89
2018-01-22T03:23:02.939Z,7.8
2018-01-22T03:23:43.489Z,7.83
2018-01-22T03:24:24.101Z,7.83
2018-01-22T03:25:04.687Z,7.82
2018-01-22T03:25:45.277Z,7.89
2018-01-22T03:26:25.850Z,7.9
2018-01-22T03:27:06.396Z,7.86
2018-01-22T03:27:46.989Z,7.92
2018-01-22T03:28:27.602Z,7.89
2018-01-22T03:29:08.160Z,7.89
2018-01-22T03:29:48.778Z,7.92
2018-01-22T03:30:29.311Z,7.85
2018-01-22T03:31:09.939Z,7.9
2018-01-22T03:31:50.472Z,7.86
2018-01-22T03:32:31.055Z,8.04
2018-01-22T03:33:11.610Z,8.04
2018-01-22T03:33:52.207Z,7.98
2018-01-22T03:34:32.823Z,7.98
2018-01-22T03:35:13.369Z,8
2018-01-22T03:35:53.940Z,7.85
2018-01-22T03:36:34.490Z,7.86
2018-01-22T03:37:15.083Z,7.86
2018-01-22T03:37:55.682Z,7.95
2018-01-22T03:38:36.280Z,8.02
2018-01-22T03:39:16.824Z,8.01
2018-01-22T03:39:57.396Z,8.02
2018-01-22T03:40:37.992Z,7.97
2018-01-22T03:41:18.539Z,7.95
2018-01-22T03:41:59.125Z,7.9
2018-01-22T03:42:39.719Z,7.87
2018-01-22T03:43:20.293Z,7.95
2018-01-22T03:44:00.905Z,7.86
2018-01-22T03:44:41.448Z,8.05
2018-01-22T03:45:22.049Z,8.07
2018-01-22T03:46:02.624Z,8.1
2018-01-22T03:46:43.203Z,8.11
2018-01-22T03:47:23.751Z,8.07
2018-01-22T03:48:04.295Z,7.85
2018-01-22T03:48:44.874Z,7.9
2018-01-22T03:49:25.432Z,7.86
2018-01-22T03:50:05.968Z,7.95
2018-01-22T03:50:46.551Z,8
2018-01-22T03:51:27.105Z,8.11
2018-01-22T03:52:07.604Z,8.11
2018-01-22T03:52:48.156Z,8.1
2018-01-22T03:53:28.678Z,8.07
2018-01-22T03:54:09.293Z,8.11
2018-01-22T03:54:49.795Z,8.15
2018-01-22T03:55:30.379Z,8.08
2018-01-22T03:56:10.927Z,8.1
2018-01-22T03:56:51.484Z,8.1
2018-01-22T03:57:32.039Z,7.98
2018-01-22T03:58:12.571Z,7.98
2018-01-22T03:58:53.120Z,8.01
2018-01-22T03:59:33.686Z,7.93
2018-01-22T04:00:14.200Z,7.89
2018-01-22T04:00:54.763Z,8.02
2018-01-22T04:01:35.274Z,8.07
2018-01-22T04:02:15.833Z,8.08
2018-01-22T04:02:56.381Z,8.15
2018-01-22T04:03:36.908Z,8.05
2018-01-22T04:04:17.475Z,8.1
2018-01-22T04:04:58.011Z,8.11
2018-01-22T04:05:38.598Z,7.89
2018-01-22T04:06:19.174Z,8.05
2018-01-22T04:06:59.710Z,7.97
2018-01-22T04:07:40.234Z,8.01
2018-01-22T04:08:20.819Z,7.95
2018-01-22T04:09:01.415Z,8.11
2018-01-22T04:09:41.992Z,7.89
2018-01-22T04:10:22.517Z,7.68
2018-01-22T04:11:03.065Z,7.64
2018-01-22T04:11:43.602Z,7.64
2018-01-22T04:12:24.157Z,7.83
2018-01-22T04:13:04.725Z,7.79
2018-01-22T04:13:45.312Z,7.89
2018-01-22T04:14:25.824Z,7.92
2018-01-22T04:16:32.605Z,7.89
2018-01-22T04:17:13.134Z,7.71
2018-01-22T04:17:53.671Z,7.64
2018-01-22T04:18:34.225Z,7.52
2018-01-22T04:19:14.822Z,7.71
2018-01-22T04:19:55.374Z,7.72
2018-01-22T04:20:35.993Z,7.82
2018-01-22T04:21:16.488Z,7.85
2018-01-22T04:21:57.041Z,7.69
2018-01-22T04:45:35.894Z,7.52
2018-01-22T04:46:16.435Z,7.58
2018-01-22T04:46:56.924Z,7.72
2018-01-22T04:47:37.503Z,7.69
2018-01-22T04:48:18.061Z,7.55
2018-01-22T04:48:58.665Z,7.68
2018-01-22T04:49:39.190Z,7.79
2018-01-22T04:50:19.743Z,7.72
2018-01-22T04:51:00.268Z,7.83
2018-01-22T04:51:40.841Z,7.87
2018-01-22T04:52:21.402Z,7.92
2018-01-22T04:53:01.995Z,7.92
2018-01-22T04:53:42.536Z,7.71
2018-01-22T04:54:23.085Z,7.63
2018-01-22T04:55:03.666Z,7.53
2018-01-22T04:55:44.196Z,7.58
2018-01-22T04:56:24.763Z,7.69
2018-01-22T04:57:05.365Z,7.72
2018-01-22T04:57:45.971Z,7.77
2018-01-22T04:58:26.533Z,7.49
2018-01-22T04:59:07.177Z,7.52
2018-01-22T04:59:47.782Z,7.64
2018-01-22T05:00:28.280Z,7.72
2018-01-22T05:01:08.798Z,7.72
2018-01-22T05:01:49.346Z,7.8
2018-01-22T05:02:29.961Z,7.71
2018-01-22T05:03:10.642Z,7.83
2018-01-22T05:03:51.190Z,7.71
2018-01-22T05:04:31.900Z,7.83
2018-01-22T05:05:12.453Z,7.87
2018-01-22T05:05:53.035Z,7.95
2018-01-22T05:06:33.595Z,8
2018-01-22T05:07:14.238Z,7.92
2018-01-22T05:07:54.747Z,7.72
2018-01-22T05:08:35.298Z,7.55
2018-01-22T05:09:15.852Z,7.61
2018-01-22T05:09:56.425Z,7.68
2018-01-22T05:10:37.029Z,7.79
2018-01-22T05:11:17.606Z,7.89
2018-01-22T05:11:58.297Z,7.92
2018-01-22T05:12:38.713Z,7.86
2018-01-22T05:13:19.233Z,7.85
2018-01-22T05:13:59.822Z,7.98
2018-01-22T05:14:40.377Z,7.89
2018-01-22T05:15:20.900Z,7.95
2018-01-22T05:16:01.524Z,7.89
2018-01-22T05:16:42.076Z,7.95
2018-01-22T05:17:22.668Z,7.93
2018-01-22T05:18:03.192Z,8.02
2018-01-22T05:18:45.390Z,8.12
2018-01-22T05:19:25.991Z,8.11
2018-01-22T05:20:06.551Z,8.1
2018-01-22T05:20:47.148Z,8.07
2018-01-22T05:21:27.721Z,8.19
2018-01-22T05:22:08.281Z,8.05
2018-01-22T05:22:48.860Z,8.12
2018-01-22T05:23:29.436Z,8.02
2018-01-22T05:24:10.032Z,7.83
2018-01-22T05:24:50.570Z,7.89
2018-01-22T05:25:31.117Z,8.05
2018-01-22T05:26:11.695Z,7.93
2018-01-22T05:26:52.264Z,8.07
2018-01-22T05:27:32.761Z,8.04
2018-01-22T05:28:13.300Z,8.04
2018-01-22T05:28:53.860Z,8.05
2018-01-22T05:29:34.426Z,8.07
2018-01-22T05:30:14.935Z,7.9
2018-01-22T05:30:55.511Z,7.93
2018-01-22T05:31:36.081Z,7.97
2018-01-22T05:32:16.633Z,7.95
2018-01-22T05:32:57.184Z,7.83
2018-01-22T05:33:37.755Z,7.8
2018-01-22T05:34:18.353Z,7.83
2018-01-22T05:34:58.978Z,7.85
2018-01-22T05:35:39.518Z,7.95
2018-01-22T05:36:20.082Z,8.07
2018-01-22T05:37:00.615Z,8.11
2018-01-22T05:37:41.146Z,8.08
2018-01-22T05:38:21.676Z,8.1
2018-01-22T05:39:02.236Z,8.15
2018-01-22T05:39:42.789Z,7.86
2018-01-22T05:40:23.341Z,7.93
2018-01-22T05:41:03.939Z,7.61
2018-01-22T05:41:44.455Z,7.5
2018-01-22T05:42:25.006Z,7.34
2018-01-22T05:43:05.567Z,7.4
2018-01-22T05:43:46.141Z,7.23
2018-01-22T05:44:26.698Z,7.28
2018-01-22T05:45:07.332Z,7.5
2018-01-22T05:45:47.901Z,7.39
2018-01-22T05:46:28.556Z,7.46
2018-01-22T05:47:09.148Z,7.39
2018-01-22T05:47:49.763Z,7.53
2018-01-22T05:48:30.295Z,7.8
2018-01-22T05:49:10.824Z,7.79
2018-01-22T05:49:51.370Z,7.68
2018-01-22T05:50:31.935Z,7.82
2018-01-22T05:51:12.530Z,7.83
2018-01-22T05:51:53.081Z,7.86
2018-01-22T05:52:33.634Z,7.97
2018-01-22T05:53:14.217Z,7.93
2018-01-22T05:53:54.798Z,7.79
2018-01-22T05:54:35.349Z,7.61
2018-01-22T05:55:15.912Z,7.74
2018-01-22T05:55:56.458Z,7.72
2018-01-22T05:56:37.005Z,7.75
2018-01-22T05:57:18.516Z,7.74
2018-01-22T05:57:59.135Z,7.6
2018-01-22T05:58:39.650Z,7.71
2018-01-22T05:59:20.265Z,7.83
2018-01-22T06:00:00.797Z,7.87
2018-01-22T06:00:41.384Z,8
2018-01-22T06:01:21.944Z,8.1
2018-01-22T06:02:02.529Z,7.75
2018-01-22T06:02:43.107Z,7.53
2018-01-22T06:03:23.671Z,7.72
2018-01-22T06:04:04.258Z,7.75
2018-01-22T06:04:44.718Z,7.83
2018-01-22T06:05:25.277Z,7.9
2018-01-22T06:06:05.906Z,7.89
2018-01-22T06:06:46.464Z,7.87
2018-01-22T06:07:27.015Z,7.85
2018-01-22T06:08:07.575Z,7.86
2018-01-22T06:08:48.154Z,7.98
2018-01-22T06:09:28.734Z,8.02
2018-01-22T06:10:10.185Z,8.1
2018-01-22T06:10:50.763Z,8.1
2018-01-22T06:11:31.324Z,8.01
2018-01-22T06:12:11.973Z,7.86
2018-01-22T06:12:52.489Z,7.77
2018-01-22T06:13:33.051Z,7.75
2018-01-22T06:14:13.593Z,7.77
2018-01-22T06:14:54.143Z,7.92
2018-01-22T06:15:34.688Z,7.98
2018-01-22T06:16:15.333Z,8.07
2018-01-22T06:16:55.876Z,8.11
2018-01-22T06:17:36.428Z,8.07
2018-01-22T06:18:17.044Z,8.12
2018-01-22T06:18:57.664Z,7.97
2018-01-22T06:19:39.887Z,8.18
2018-01-22T06:20:21.658Z,8.11
2018-01-22T06:21:02.240Z,8.11
2018-01-22T06:21:42.751Z,8
2018-01-22T06:22:23.396Z,7.92
2018-01-22T06:23:03.954Z,8.07
2018-01-22T06:23:44.562Z,8.12
2018-01-22T06:24:25.174Z,8.07
2018-01-22T06:25:05.858Z,7.93
2018-01-22T06:25:48.266Z,8.07
2018-01-22T06:26:29.190Z,8.15
2018-01-22T06:27:09.754Z,8.15
2018-01-22T06:27:50.343Z,8.16
2018-01-22T06:28:30.924Z,8.11
2018-01-22T06:29:11.497Z,8.07
2018-01-22T06:29:52.037Z,8.05
2018-01-22T06:30:32.555Z,7.97
2018-01-22T06:31:13.158Z,8.1
2018-01-22T06:31:53.722Z,8.11
2018-01-22T06:32:34.230Z,8.01
2018-01-22T06:33:14.802Z,8.11
2018-01-22T06:33:55.360Z,8.12
2018-01-22T06:34:35.900Z,8.07
2018-01-22T06:35:16.489Z,7.87
2018-01-22T06:35:57.064Z,7.77
2018-01-22T06:36:37.599Z,7.75
2018-01-22T06:37:18.140Z,7.86
2018-01-22T06:37:58.693Z,7.82
2018-01-22T06:38:39.286Z,7.9
2018-01-22T06:39:19.804Z,7.89
2018-01-22T06:40:00.378Z,8.04
2018-01-22T06:40:40.917Z,7.95
2018-01-22T06:41:21.483Z,8.01
2018-01-22T06:42:02.051Z,7.85
2018-01-22T06:42:42.636Z,7.9
2018-01-22T06:43:23.278Z,7.9
2018-01-22T06:44:04.019Z,8.04
2018-01-22T06:44:44.534Z,8
2018-01-22T06:45:25.162Z,7.95
2018-01-22T06:46:05.614Z,7.9
2018-01-22T06:46:46.241Z,8.04
2018-01-22T06:47:26.859Z,8.12
2018-01-22T06:48:10.222Z,8.05
2018-01-22T06:48:50.822Z,8.05
2018-01-22T06:49:31.457Z,7.98
2018-01-22T06:50:12.063Z,7.79
2018-01-22T06:50:52.601Z,7.74
2018-01-22T06:51:33.295Z,7.79
2018-01-22T06:52:13.841Z,7.74
2018-01-22T06:52:54.521Z,7.83
2018-01-22T06:53:35.086Z,7.86
2018-01-22T06:54:15.966Z,7.89
2018-01-22T06:54:56.599Z,7.95
2018-01-22T06:55:37.166Z,7.83
2018-01-22T06:56:17.736Z,7.71
2018-01-22T06:56:58.437Z,7.77
2018-01-22T06:57:39.128Z,7.82
2018-01-22T06:58:19.551Z,7.71
2018-01-22T06:59:00.126Z,7.95
2018-01-22T06:59:40.752Z,8
2018-01-22T07:00:21.382Z,8.01
2018-01-22T07:01:01.966Z,8
2018-01-22T07:01:42.439Z,7.89
2018-01-22T07:02:22.945Z,7.85
2018-01-22T07:03:03.642Z,7.92
2018-01-22T07:03:44.233Z,8.01
2018-01-22T07:04:24.845Z,8.12
2018-01-22T07:05:05.429Z,8.19
2018-01-22T07:05:46.016Z,8.07
2018-01-22T07:06:26.601Z,7.9
2018-01-22T07:07:07.177Z,7.83
2018-01-22T07:07:47.953Z,7.82
2018-01-22T07:08:28.542Z,7.69
2018-01-22T07:09:09.128Z,7.69
2018-01-22T07:09:49.750Z,7.89
2018-01-22T07:10:30.330Z,8.04
2018-01-22T07:11:10.944Z,8.1
2018-01-22T07:11:51.565Z,7.89
2018-01-22T07:12:32.096Z,7.85
2018-01-22T07:13:12.606Z,7.87
2018-01-22T07:13:53.228Z,7.92
2018-01-22T07:15:44.637Z,8.07
2018-01-22T07:16:25.232Z,8.01
2018-01-22T07:17:05.897Z,8.12
2018-01-22T07:17:46.414Z,8.05
2018-01-22T07:18:26.911Z,8.12
2018-01-22T07:19:07.455Z,8.12
2018-01-22T07:19:47.996Z,7.87
2018-01-22T07:20:28.688Z,7.82
2018-01-22T07:21:09.297Z,7.92
2018-01-22T07:21:49.843Z,7.86
2018-01-22T07:22:30.374Z,7.97
2018-01-22T07:23:10.899Z,8.1
2018-01-22T07:23:51.488Z,8.12
2018-01-22T07:24:31.976Z,8.05
2018-01-22T07:25:12.499Z,8.15
2018-01-22T07:25:54.066Z,8.16
2018-01-22T07:26:34.666Z,8.29
2018-01-22T07:27:15.252Z,8.16
2018-01-22T07:27:55.875Z,8.16
2018-01-22T07:28:36.353Z,8.34
2018-01-22T07:29:16.966Z,8.43
2018-01-22T07:29:57.564Z,8.43
2018-01-22T07:30:38.077Z,8.29
2018-01-22T07:31:18.677Z,8.28
2018-01-22T07:31:59.184Z,8.23
2018-01-22T07:32:39.757Z,8.25
2018-01-22T07:33:20.292Z,8.37
2018-01-22T07:34:00.992Z,8.34
2018-01-22T07:34:41.559Z,8.36
2018-01-22T07:35:22.085Z,8.25
2018-01-22T07:36:02.683Z,8.33
2018-01-22T07:36:43.244Z,8.28
2018-01-22T07:37:23.753Z,8.3
2018-01-22T07:38:04.293Z,8.41
2018-01-22T07:38:44.827Z,8.45
2018-01-22T07:39:25.435Z,8.58
2018-01-22T07:40:05.931Z,8.41
2018-01-22T07:40:46.654Z,8.41
2018-01-22T07:41:27.178Z,8.48
2018-01-22T07:42:07.755Z,8.53
2018-01-22T07:42:48.263Z,8.56
2018-01-22T07:43:28.833Z,8.53
2018-01-22T07:44:09.418Z,8.56
2018-01-22T07:44:50.054Z,8.63
2018-01-22T07:45:30.570Z,8.66
2018-01-22T07:46:11.101Z,8.74
2018-01-22T07:46:51.580Z,8.68
2018-01-22T07:47:32.164Z,8.71
2018-01-22T07:48:12.711Z,8.76
2018-01-22T07:48:53.239Z,8.83
2018-01-22T07:49:33.885Z,8.87
2018-01-22T07:50:15.008Z,8.92
2018-01-22T07:50:55.522Z,8.94
2018-01-22T07:51:36.086Z,8.94
2018-01-22T07:52:16.631Z,9.01
2018-01-22T07:52:57.151Z,8.98
2018-01-22T07:53:37.702Z,8.98
2018-01-22T07:54:18.241Z,8.99
2018-01-22T07:54:58.799Z,8.87
2018-01-22T07:55:39.370Z,9.02
2018-01-22T07:56:19.896Z,9.1
2018-01-22T07:57:00.436Z,9.6
2018-01-22T07:57:41.013Z,10.01
2018-01-22T07:58:21.574Z,10.07
2018-01-22T07:59:02.200Z,9.83
2018-01-22T07:59:42.693Z,9.76
2018-01-22T08:00:23.253Z,9.69
2018-01-22T08:01:03.920Z,9.66
2018-01-22T08:01:44.441Z,9.58
2018-01-22T08:02:24.956Z,9.75
2018-01-22T08:03:05.449Z,9.97
2018-01-22T08:03:45.975Z,9.61
2018-01-22T08:04:26.570Z,9.51
2018-01-22T08:05:07.080Z,9.28
2018-01-22T08:05:47.678Z,9.14
2018-01-22T08:06:28.439Z,9.14
2018-01-22T08:07:08.992Z,9.17
2018-01-22T08:07:49.513Z,9.14
2018-01-22T08:08:30.052Z,9.14
2018-01-22T08:09:10.563Z,9.53
2018-01-22T08:09:51.133Z,9.66
2018-01-22T08:10:31.839Z,9.39
2018-01-22T08:11:12.374Z,9.48
2018-01-22T08:11:52.895Z,9.54
2018-01-22T08:12:33.471Z,9.5
2018-01-22T08:13:14.057Z,9.1
2018-01-22T08:13:55.581Z,8.83
2018-01-22T08:14:35.333Z,8.84
2018-01-22T08:15:15.798Z,8.92
2018-01-22T08:15:56.291Z,8.94
2018-01-22T08:16:36.833Z,9.05
2018-01-22T08:17:17.373Z,9.05
2018-01-22T08:17:58.054Z,9.1
2018-01-22T08:18:38.517Z,8.95
2018-01-22T08:19:19.078Z,9.11
2018-01-22T08:19:59.576Z,9.1
2018-01-22T08:20:40.136Z,9.08
2018-01-22T08:21:20.707Z,9.15
2018-01-22T08:22:01.324Z,9.29
2018-01-22T08:22:41.758Z,9.26
2018-01-22T08:23:22.309Z,9.36
2018-01-22T08:24:02.835Z,9.35
2018-01-22T08:24:43.368Z,9.36
2018-01-22T08:25:23.986Z,9.53
2018-01-22T08:26:04.511Z,9.57
2018-01-22T08:26:45.014Z,9.66
2018-01-22T08:27:25.651Z,9.65
2018-01-22T08:28:06.147Z,9.61
2018-01-22T08:28:46.631Z,9.64
2018-01-22T08:29:27.216Z,9.58
2018-01-22T08:30:07.781Z,9.66
2018-01-22T08:30:48.310Z,9.72
2018-01-22T08:31:28.863Z,9.72
2018-01-22T08:32:09.396Z,9.94
2018-01-22T08:32:49.940Z,10.18
2018-01-22T08:33:30.468Z,10.15
2018-01-22T08:34:11.011Z,10.34
2018-01-22T08:34:51.568Z,10.55
2018-01-22T08:35:32.091Z,10.59
2018-01-22T08:36:12.573Z,10.52
2018-01-22T08:36:53.132Z,10.61
2018-01-22T08:37:33.741Z,10.61
2018-01-22T08:38:14.240Z,10.56
2018-01-22T08:38:54.831Z,10.63
2018-01-22T08:39:35.339Z,10.52
2018-01-22T08:40:15.847Z,10.27
2018-01-22T08:40:56.437Z,10.11
2018-01-22T08:41:36.967Z,10.14
2018-01-22T08:42:17.509Z,10.02
2018-01-22T08:42:58.077Z,10.08
2018-01-22T08:43:38.572Z,10.17
2018-01-22T08:44:20.092Z,10.14
2018-01-22T08:45:00.246Z,10.36
2018-01-22T08:45:41.384Z,10.33
2018-01-22T08:46:21.987Z,10.41
2018-01-22T08:47:02.426Z,10.59
2018-01-22T08:47:43.097Z,10.61
2018-01-22T08:48:23.638Z,10.59
2018-01-22T08:49:04.210Z,10.84
2018-01-22T08:49:44.748Z,10.89
2018-01-22T08:50:25.264Z,10.78
2018-01-22T08:51:06.040Z,10.81
2018-01-22T08:51:46.747Z,10.73
2018-01-22T08:52:27.252Z,10.89
2018-01-22T08:53:07.827Z,11.02
2018-01-22T08:53:48.337Z,10.82
2018-01-22T08:54:28.863Z,10.7
2018-01-22T08:55:09.485Z,10.67
2018-01-22T08:55:50.156Z,10.66
2018-01-22T08:56:30.835Z,10.64
2018-01-22T08:57:11.429Z,10.6
2018-01-22T08:57:51.916Z,10.6
2018-01-22T08:58:32.449Z,10.59
2018-01-22T08:59:13.101Z,10.64
2018-01-22T08:59:53.621Z,10.92
2018-01-22T09:00:34.172Z,10.89
2018-01-22T09:01:14.736Z,10.76
2018-01-22T09:01:55.285Z,10.81
2018-01-22T09:02:35.844Z,10.81
2018-01-22T09:03:16.377Z,10.81
2018-01-22T09:03:56.972Z,10.99
2018-01-22T09:04:37.572Z,11.04
2018-01-22T09:05:18.076Z,10.91
2018-01-22T09:05:58.842Z,10.78
2018-01-22T09:06:39.399Z,10.79
2018-01-22T09:07:19.942Z,10.78
2018-01-22T09:08:00.446Z,10.85
2018-01-22T09:08:40.971Z,10.78
2018-01-22T09:09:21.510Z,10.81
2018-01-22T09:10:02.104Z,10.7
2018-01-22T09:10:42.660Z,10.61
2018-01-22T09:11:23.413Z,10.78
2018-01-22T09:12:04.174Z,10.7
2018-01-22T09:12:44.589Z,10.82
2018-01-22T09:13:25.087Z,10.56
2018-01-22T09:14:05.828Z,10.7
2018-01-22T09:14:46.380Z,10.55
2018-01-22T09:15:27.000Z,10.66
2018-01-22T09:16:07.488Z,10.68
2018-01-22T09:16:48.083Z,10.78
2018-01-22T09:17:28.743Z,10.94
2018-01-22T09:18:09.438Z,11.28
2018-01-22T09:18:49.984Z,11.79
2018-01-22T09:19:30.565Z,11.61
2018-01-22T09:20:12.118Z,11.64
2018-01-22T09:20:52.429Z,11.47
2018-01-22T09:21:32.920Z,11.49
2018-01-22T09:22:13.685Z,11.58
2018-01-22T09:22:54.200Z,11.51
2018-01-22T09:23:34.785Z,11.46
2018-01-22T09:24:15.447Z,11.36
2018-01-22T09:24:56.012Z,11.33
2018-01-22T09:25:36.547Z,11.15
2018-01-22T09:26:17.143Z,11.11
2018-01-22T09:26:57.709Z,11.14
2018-01-22T09:27:38.180Z,11.19
2018-01-22T09:28:18.709Z,11.33
2018-01-22T09:28:59.283Z,11.37
2018-01-22T09:29:39.776Z,11.43
2018-01-22T09:30:20.385Z,11.36
2018-01-22T09:31:01.131Z,11.44
2018-01-22T09:31:41.400Z,11.39
2018-01-22T09:32:21.962Z,11.28
2018-01-22T09:33:02.512Z,11.33
2018-01-22T09:33:43.125Z,11.55
2018-01-22T09:34:23.674Z,11.98
2018-01-22T09:35:04.264Z,12.16
2018-01-22T09:35:44.876Z,12.24
2018-01-22T09:36:25.466Z,12.09
2018-01-22T09:37:06.068Z,12.19
2018-01-22T09:37:46.636Z,11.78
2018-01-22T09:38:27.081Z,11.54
2018-01-22T09:39:07.570Z,11.44